Time;durP1;ratioP1;P1;durP2;ratioP2;P2;SDS_P1;SDS_P2;PMS_P1;PMS_P2;Temp;Humidity;BMP_temperature;BMP_pressure;BME280_temperature;BME280_humidity;BME280_pressure;Samples;Min_cycle;Max_cycle;Signal;HPM_P1;HPM_P2
2022/07/30 00:00:40;;;;;;;3.13;1.50;;;17.00;71.90;;;;;;4130740;28;20046;-84
2022/07/30 00:03:03;;;;;;;7.63;1.95;;;17.00;71.50;;;;;;4134113;28;20685;-85
2022/07/30 00:05:24;;;;;;;8.55;1.92;;;17.00;71.60;;;;;;4131930;28;20045;-84
2022/07/30 00:07:44;;;;;;;7.28;1.88;;;17.00;71.60;;;;;;4112896;28;20132;-85
2022/07/30 00:10:05;;;;;;;5.78;1.55;;;17.00;71.80;;;;;;4128250;28;20066;-85
2022/07/30 00:12:26;;;;;;;4.03;1.50;;;17.00;72.00;;;;;;4126911;28;20065;-85
2022/07/30 00:14:46;;;;;;;8.82;1.80;;;17.00;71.90;;;;;;4128304;28;20045;-85
2022/07/30 00:17:08;;;;;;;4.45;1.50;;;17.00;71.80;;;;;;4127245;28;20046;-83
2022/07/30 00:19:29;;;;;;;6.38;1.80;;;17.00;72.10;;;;;;4125667;28;20031;-85
2022/07/30 00:21:49;;;;;;;9.05;2.10;;;17.00;72.50;;;;;;4110829;28;20122;-85
2022/07/30 00:24:10;;;;;;;7.40;1.42;;;17.00;72.80;;;;;;4105303;28;20030;-85
2022/07/30 00:26:31;;;;;;;7.30;1.58;;;16.90;72.40;;;;;;4122530;28;20053;-86
2022/07/30 00:28:31;;;;;;;6.93;2.10;;;17.00;73.50;;;;;;4093229;28;20027;-83
2022/07/30 00:30:32;;;;;;;4.20;1.40;;;16.90;72.80;;;;;;4127543;28;20026;-85
2022/07/30 00:32:33;;;;;;;5.75;1.50;;;16.90;72.90;;;;;;4111469;28;20046;-85
2022/07/30 00:34:37;;;;;;;7.95;1.67;;;16.90;72.90;;;;;;4127621;28;20494;-84
2022/07/30 00:36:58;;;;;;;4.78;1.50;;;16.90;73.00;;;;;;4121760;28;20042;-85
2022/07/30 00:39:18;;;;;;;13.27;1.40;;;16.90;72.80;;;;;;4127466;28;20038;-85
2022/07/30 00:41:19;;;;;;;4.00;1.23;;;16.90;73.00;;;;;;4111016;28;20045;-86
2022/07/30 00:43:40;;;;;;;7.38;1.65;;;16.90;73.00;;;;;;4125142;28;20084;-83
2022/07/30 00:46:00;;;;;;;6.57;1.38;;;16.90;73.20;;;;;;4127412;28;20105;-85
2022/07/30 00:48:04;;;;;;;6.03;1.60;;;16.90;72.90;;;;;;4110171;28;20038;-83
2022/07/30 00:50:25;;;;;;;9.75;1.50;;;16.90;72.90;;;;;;4111477;28;20047;-83
2022/07/30 00:52:45;;;;;;;7.47;1.75;;;16.90;73.10;;;;;;4110509;28;20038;-84
2022/07/30 00:55:09;;;;;;;5.28;1.27;;;16.90;73.30;;;;;;4126776;28;20022;-85
2022/07/30 00:57:30;;;;;;;5.10;1.30;;;16.80;72.90;;;;;;4124179;28;20031;-86
2022/07/30 00:59:51;;;;;;;6.40;1.50;;;16.90;73.00;;;;;;4122104;28;20026;-86
2022/07/30 01:02:11;;;;;;;4.45;1.15;;;16.90;73.00;;;;;;4127379;28;20031;-86
2022/07/30 01:04:12;;;;;;;5.22;1.17;;;16.90;73.20;;;;;;4110984;28;20942;-85
2022/07/30 01:06:13;;;;;;;5.45;1.55;;;16.80;73.20;;;;;;4127000;28;20038;-86
2022/07/30 01:08:13;;;;;;;5.25;1.13;;;16.80;73.30;;;;;;4092292;28;20110;-84
2022/07/30 01:10:14;;;;;;;5.57;1.55;;;16.90;73.50;;;;;;4124652;28;20045;-85
2022/07/30 01:12:21;;;;;;;4.97;1.48;;;16.80;73.40;;;;;;4107242;28;20059;-86
2022/07/30 01:14:23;;;;;;;6.72;1.70;;;16.80;73.70;;;;;;4103433;28;20046;-84
2022/07/30 01:16:24;;;;;;;6.95;1.58;;;16.80;74.00;;;;;;4125926;28;20051;-86
2022/07/30 01:19:47;;;;;;;9.98;2.13;;;16.80;73.70;;;;;;4110590;28;20027;-85
2022/07/30 01:21:11;;;;;;;3.92;1.15;;;16.80;74.00;;;;;;4123863;28;20025;-84
2022/07/30 01:23:31;;;;;;;7.18;1.40;;;16.80;74.50;;;;;;4127885;28;20038;-85
2022/07/30 01:25:50;;;;;;;7.68;1.85;;;16.80;74.40;;;;;;4095395;28;20102;-84
2022/07/30 01:28:10;;;;;;;8.88;1.88;;;16.70;74.70;;;;;;4131183;28;20034;-83
2022/07/30 01:30:21;;;;;;;7.32;1.70;;;16.80;74.50;;;;;;4115103;28;20480;-84
2022/07/30 01:32:43;;;;;;;8.85;2.08;;;16.70;74.60;;;;;;4120034;28;20035;-84
2022/07/30 01:35:07;;;;;;;8.32;1.55;;;16.80;74.60;;;;;;4115738;28;20046;-84
2022/07/30 01:37:29;;;;;;;5.75;1.73;;;16.70;74.90;;;;;;4116936;28;20337;-84
2022/07/30 01:39:51;;;;;;;7.85;1.77;;;16.70;75.30;;;;;;4127562;28;20038;-84
2022/07/30 01:42:13;;;;;;;4.57;1.55;;;16.70;75.40;;;;;;4125881;28;20038;-83
2022/07/30 01:44:19;;;;;;;5.22;1.33;;;16.70;75.40;;;;;;4111514;28;20030;-84
2022/07/30 01:46:41;;;;;;;6.38;1.70;;;16.70;75.40;;;;;;4129102;28;20038;-85
2022/07/30 01:49:02;;;;;;;3.63;1.20;;;16.70;75.70;;;;;;4118225;28;20039;-83
2022/07/30 01:51:23;;;;;;;6.72;1.50;;;16.70;75.80;;;;;;4130126;28;20502;-84
2022/07/30 01:53:46;;;;;;;6.57;1.45;;;16.70;75.70;;;;;;4129745;28;20096;-85
2022/07/30 01:56:10;;;;;;;5.77;1.60;;;16.70;75.50;;;;;;4114468;28;20031;-85
2022/07/30 01:58:34;;;;;;;8.80;2.58;;;16.70;75.90;;;;;;4115026;28;20035;-85
2022/07/30 02:00:56;;;;;;;;;;;16.70;75.80;;;;;;4117116;28;20034;-85
2022/07/30 02:03:17;;;;;;;7.57;1.98;;;16.70;77.10;;;;;;4132592;28;20385;-84
2022/07/30 02:05:40;;;;;;;5.03;1.60;;;16.70;75.80;;;;;;4130365;28;20151;-85
2022/07/30 02:08:40;;;;;;;4.88;1.50;;;16.70;75.80;;;;;;4130432;28;20128;-85
2022/07/30 02:11:07;;;;;;;5.70;1.60;;;16.70;76.00;;;;;;4117761;28;20035;-84
2022/07/30 02:13:29;;;;;;;7.05;1.65;;;16.70;76.00;;;;;;4129630;28;20089;-85
2022/07/30 02:16:25;;;;;;;5.35;1.77;;;16.70;75.80;;;;;;4128438;28;20050;-84
2022/07/30 02:18:55;;;;;;;10.10;1.90;;;16.70;76.60;;;;;;4132155;28;20026;-85
2022/07/30 02:21:03;;;;;;;6.72;1.83;;;16.70;76.00;;;;;;4131732;28;20093;-84
2022/07/30 02:23:11;;;;;;;3.85;1.50;;;16.70;76.00;;;;;;4129749;28;20026;-84
2022/07/30 02:25:19;;;;;;;9.38;1.88;;;16.70;75.90;;;;;;4095046;28;20030;-85
2022/07/30 02:27:27;;;;;;;6.03;1.58;;;16.70;75.80;;;;;;4126760;28;20022;-84
2022/07/30 02:29:31;;;;;;;3.63;1.30;;;16.70;75.90;;;;;;4110616;28;20098;-87
2022/07/30 02:31:32;;;;;;;7.65;1.77;;;16.70;75.80;;;;;;4131641;28;20030;-85
2022/07/30 02:33:37;;;;;;;5.88;1.48;;;16.80;76.00;;;;;;4117526;28;20090;-86
2022/07/30 02:35:40;;;;;;;4.68;1.60;;;16.70;75.90;;;;;;4099473;28;20039;-84
2022/07/30 02:37:42;;;;;;;4.65;1.50;;;16.80;76.00;;;;;;4132231;28;20031;-84
2022/07/30 02:39:43;;;;;;;4.47;2.03;;;16.70;75.80;;;;;;4125678;28;20027;-84
2022/07/30 02:41:45;;;;;;;3.45;1.40;;;16.80;75.90;;;;;;4097596;28;20698;-85
2022/07/30 02:43:48;;;;;;;6.07;1.65;;;16.80;75.80;;;;;;4114415;28;20479;-86
2022/07/30 02:45:50;;;;;;;7.28;1.98;;;16.80;75.80;;;;;;4127766;28;20026;-85
2022/07/30 02:47:56;;;;;;;4.07;1.60;;;16.80;75.80;;;;;;4115327;28;20035;-85
2022/07/30 02:49:58;;;;;;;4.25;1.58;;;16.80;76.10;;;;;;4129257;28;20032;-84
2022/07/30 02:52:00;;;;;;;7.70;1.48;;;16.80;76.10;;;;;;4125854;28;20038;-84
2022/07/30 02:54:02;;;;;;;5.90;1.45;;;16.80;75.70;;;;;;4106230;28;20038;-85
2022/07/30 02:56:06;;;;;;;3.75;1.52;;;16.80;76.40;;;;;;4124367;28;20046;-84
2022/07/30 02:58:09;;;;;;;8.77;1.90;;;16.80;75.50;;;;;;4109203;28;20043;-86
2022/07/30 03:00:12;;;;;;;7.88;1.67;;;16.80;75.70;;;;;;4110973;28;20031;-85
2022/07/30 03:02:33;;;;;;;10.15;1.55;;;16.80;75.80;;;;;;4127800;28;20098;-85
2022/07/30 03:04:40;;;;;;;8.00;1.60;;;16.80;75.80;;;;;;4107663;28;20387;-85
2022/07/30 03:06:44;;;;;;;9.02;1.92;;;16.80;75.80;;;;;;4125349;28;20043;-84
2022/07/30 03:08:46;;;;;;;6.40;1.52;;;16.80;76.00;;;;;;4124787;28;20053;-86
2022/07/30 03:10:48;;;;;;;8.57;1.75;;;16.70;76.10;;;;;;4109102;28;20023;-84
2022/07/30 03:13:11;;;;;;;7.65;1.70;;;16.70;75.90;;;;;;4130724;28;20054;-85
2022/07/30 03:15:36;;;;;;;6.13;2.00;;;16.80;76.10;;;;;;4134230;28;20034;-85
2022/07/30 03:17:58;;;;;;;5.22;1.83;;;16.80;76.00;;;;;;4122401;28;20516;-85
2022/07/30 03:20:11;;;;;;;17.67;1.83;;;16.70;76.30;;;;;;4110925;28;20046;-84
2022/07/30 03:22:36;;;;;;;7.68;2.05;;;16.80;76.10;;;;;;4124498;28;20388;-85
2022/07/30 03:24:58;;;;;;;9.85;2.22;;;16.70;76.00;;;;;;4110216;28;20034;-85
2022/07/30 03:27:22;;;;;;;4.38;1.92;;;16.70;76.30;;;;;;4126338;28;21635;-85
2022/07/30 03:29:40;;;;;;;3.85;1.52;;;16.80;76.40;;;;;;4094076;28;20487;-85
2022/07/30 03:32:02;;;;;;;5.72;1.90;;;16.70;76.20;;;;;;4124863;28;21063;-86
2022/07/30 03:34:23;;;;;;;4.28;1.67;;;16.70;76.40;;;;;;4113005;28;20489;-86
2022/07/30 03:36:44;;;;;;;4.22;1.60;;;16.70;76.30;;;;;;4131935;28;20628;-85
2022/07/30 03:39:06;;;;;;;6.25;1.92;;;16.70;76.30;;;;;;4123720;28;20034;-86
2022/07/30 03:41:28;;;;;;;8.02;2.00;;;16.70;76.50;;;;;;4113513;28;20574;-85
2022/07/30 03:43:49;;;;;;;8.45;2.08;;;16.70;76.50;;;;;;4131810;28;20066;-85
2022/07/30 03:46:12;;;;;;;16.08;2.20;;;16.60;76.50;;;;;;4128074;28;20728;-85
2022/07/30 03:48:33;;;;;;;5.90;1.63;;;16.70;76.50;;;;;;4127649;28;20030;-85
2022/07/30 03:50:54;;;;;;;6.72;1.98;;;16.70;76.60;;;;;;4126372;28;20208;-84
2022/07/30 03:53:15;;;;;;;7.05;2.05;;;16.60;76.90;;;;;;4119733;28;20045;-86
2022/07/30 03:55:36;;;;;;;9.25;2.10;;;16.60;76.60;;;;;;4131082;28;20573;-85
2022/07/30 03:57:59;;;;;;;5.70;1.90;;;16.60;77.20;;;;;;4129790;28;20065;-86
2022/07/30 04:00:19;;;;;;;6.70;2.03;;;16.60;77.50;;;;;;4111389;28;20035;-84
2022/07/30 04:02:45;;;;;;;7.82;2.35;;;16.50;77.40;;;;;;4123749;28;21052;-85
2022/07/30 04:05:06;;;;;;;4.82;1.65;;;16.50;77.60;;;;;;4128259;28;20053;-85
2022/07/30 04:07:26;;;;;;;5.28;1.67;;;16.60;77.70;;;;;;4130211;28;20687;-85
2022/07/30 04:09:47;;;;;;;8.32;1.80;;;16.50;77.60;;;;;;4131533;28;20430;-86
2022/07/30 04:12:08;;;;;;;5.03;1.60;;;16.60;77.60;;;;;;4116776;28;20030;-86
2022/07/30 04:14:39;;;;;;;6.55;1.60;;;16.60;77.50;;;;;;4129043;28;20126;-86
2022/07/30 04:17:05;;;;;;;5.82;1.60;;;16.60;78.20;;;;;;4133335;28;20038;-84
2022/07/30 04:19:11;;;;;;;6.25;1.30;;;16.60;78.30;;;;;;4112635;28;20768;-86
2022/07/30 04:21:15;;;;;;;10.75;1.95;;;16.60;78.00;;;;;;4111014;28;20042;-87
2022/07/30 04:23:16;;;;;;;8.10;1.48;;;16.60;78.10;;;;;;4129430;28;20045;-87
2022/07/30 04:25:18;;;;;;;9.45;2.08;;;16.60;78.20;;;;;;4111838;28;20477;-85
2022/07/30 04:27:19;;;;;;;8.82;1.48;;;16.60;78.30;;;;;;4114609;28;20542;-86
2022/07/30 04:29:20;;;;;;;4.53;1.40;;;16.60;78.80;;;;;;4099710;28;20623;-87
2022/07/30 04:31:21;;;;;;;6.13;1.70;;;16.60;78.70;;;;;;4111825;28;20952;-86
2022/07/30 04:33:22;;;;;;;4.30;1.27;;;16.60;78.80;;;;;;4113662;28;20602;-86
2022/07/30 04:35:27;;;;;;;5.70;1.67;;;16.60;78.80;;;;;;4130951;28;20038;-87
2022/07/30 04:37:28;;;;;;;4.63;1.38;;;16.60;79.00;;;;;;4134479;28;20619;-86
2022/07/30 04:39:29;;;;;;;9.18;1.48;;;16.60;79.10;;;;;;4128538;28;20061;-85
2022/07/30 04:41:30;;;;;;;6.32;1.42;;;16.60;79.20;;;;;;4128485;28;20042;-86
2022/07/30 04:43:30;;;;;;;6.03;1.77;;;16.60;79.20;;;;;;4130452;28;20034;-87
2022/07/30 04:45:31;;;;;;;5.63;1.60;;;16.60;79.30;;;;;;4131316;28;20026;-86
2022/07/30 04:47:32;;;;;;;6.15;1.58;;;16.60;79.20;;;;;;4114920;28;20062;-86
2022/07/30 04:49:33;;;;;;;8.93;1.80;;;16.60;79.30;;;;;;4094644;28;20023;-85
2022/07/30 04:51:37;;;;;;;9.45;1.85;;;16.60;79.00;;;;;;4130137;28;20019;-84
2022/07/30 04:53:39;;;;;;;7.63;1.58;;;16.60;79.20;;;;;;4115778;28;20633;-86
2022/07/30 04:55:41;;;;;;;;;;;16.60;79.30;;;;;;4115739;28;20034;-85
2022/07/30 04:57:45;;;;;;;7.20;1.42;;;16.60;79.90;;;;;;4129330;28;20385;-84
2022/07/30 04:59:46;;;;;;;6.57;1.60;;;16.60;79.10;;;;;;4110932;28;20549;-85
2022/07/30 05:01:49;;;;;;;6.32;1.40;;;16.60;78.90;;;;;;4130343;28;20023;-85
2022/07/30 05:03:51;;;;;;;5.97;1.48;;;16.70;79.20;;;;;;4115027;28;20538;-85
2022/07/30 05:05:53;;;;;;;6.68;1.40;;;16.70;79.00;;;;;;4116724;28;20590;-87
2022/07/30 05:07:55;;;;;;;9.32;1.88;;;16.70;79.10;;;;;;4115884;28;20026;-85
2022/07/30 05:09:56;;;;;;;8.38;1.70;;;16.70;78.90;;;;;;4132974;28;20054;-84
2022/07/30 05:11:58;;;;;;;5.70;1.55;;;16.70;79.10;;;;;;4129719;28;20045;-87
2022/07/30 05:13:58;;;;;;;6.05;1.60;;;16.70;79.20;;;;;;4132640;28;20030;-87
2022/07/30 05:15:59;;;;;;;6.10;1.80;;;16.70;79.20;;;;;;4102460;28;20086;-85
2022/07/30 05:18:00;;;;;;;6.18;1.80;;;16.70;79.30;;;;;;4134820;28;20026;-86
2022/07/30 05:20:01;;;;;;;5.43;1.73;;;16.70;79.40;;;;;;4135579;28;20773;-86
2022/07/30 05:22:01;;;;;;;7.45;1.48;;;16.70;79.30;;;;;;4130652;28;20030;-86
2022/07/30 05:24:02;;;;;;;4.78;1.52;;;16.70;79.50;;;;;;4100372;28;20059;-86
2022/07/30 05:26:03;;;;;;;7.38;1.70;;;16.70;79.40;;;;;;4131279;28;20101;-85
2022/07/30 05:28:04;;;;;;;5.45;1.40;;;16.70;79.40;;;;;;4116468;28;20037;-85
2022/07/30 05:30:06;;;;;;;6.25;1.65;;;16.70;79.40;;;;;;4102022;28;20027;-86
2022/07/30 05:32:06;;;;;;;6.03;1.85;;;16.70;79.50;;;;;;4117986;28;20022;-86
2022/07/30 05:34:07;;;;;;;8.05;1.70;;;16.80;79.70;;;;;;4120960;28;20090;-87
2022/07/30 05:36:08;;;;;;;6.18;1.55;;;16.80;79.60;;;;;;4116030;28;20039;-86
2022/07/30 05:38:09;;;;;;;8.43;1.85;;;16.80;79.70;;;;;;4134309;28;20030;-84
2022/07/30 05:40:10;;;;;;;11.52;1.90;;;16.80;79.70;;;;;;4126976;28;20026;-86
2022/07/30 05:42:11;;;;;;;3.75;1.40;;;16.80;79.60;;;;;;4130977;28;20061;-87
2022/07/30 05:44:12;;;;;;;4.38;1.83;;;16.80;79.60;;;;;;4130710;28;20386;-85
2022/07/30 05:46:12;;;;;;;8.63;1.30;;;16.80;79.80;;;;;;4113596;28;20367;-86
2022/07/30 05:48:13;;;;;;;7.70;1.70;;;16.80;79.80;;;;;;4113591;28;20581;-86
2022/07/30 05:50:14;;;;;;;12.50;2.20;;;16.80;79.90;;;;;;4114090;28;20062;-86
2022/07/30 05:52:15;;;;;;;6.95;1.70;;;16.80;80.10;;;;;;4129512;28;20050;-85
2022/07/30 05:54:17;;;;;;;7.68;1.30;;;16.90;80.00;;;;;;4131815;28;20054;-85
2022/07/30 05:56:18;;;;;;;3.50;1.35;;;16.90;80.00;;;;;;4132535;28;20031;-85
2022/07/30 05:58:30;;;;;;;7.13;1.50;;;16.90;80.00;;;;;;4131904;28;20397;-86
2022/07/30 06:00:50;;;;;;;8.75;1.60;;;16.90;80.10;;;;;;4110092;28;20520;-84
2022/07/30 06:02:51;;;;;;;9.85;1.52;;;16.90;80.30;;;;;;4113430;28;20107;-83
2022/07/30 06:04:52;;;;;;;5.43;1.58;;;17.00;80.50;;;;;;4108284;28;20074;-86
2022/07/30 06:06:52;;;;;;;10.57;1.90;;;16.90;80.60;;;;;;4101962;28;20066;-85
2022/07/30 06:08:58;;;;;;;8.10;1.50;;;16.90;80.70;;;;;;4117175;28;20035;-85
2022/07/30 06:11:00;;;;;;;7.53;1.50;;;17.00;80.60;;;;;;4115389;28;20029;-84
2022/07/30 06:13:00;;;;;;;8.05;1.63;;;17.00;80.30;;;;;;4131408;28;20109;-85
2022/07/30 06:15:02;;;;;;;5.57;1.55;;;17.00;80.40;;;;;;4133158;28;20030;-84
2022/07/30 06:17:02;;;;;;;3.20;1.10;;;17.00;80.70;;;;;;4130235;28;20022;-86
2022/07/30 06:19:03;;;;;;;5.05;1.10;;;17.10;80.70;;;;;;4128929;28;20179;-86
2022/07/30 06:21:04;;;;;;;6.25;1.30;;;17.10;80.70;;;;;;4132713;28;20540;-85
2022/07/30 06:23:04;;;;;;;6.35;1.50;;;17.10;80.90;;;;;;4105808;28;20046;-85
2022/07/30 06:25:06;;;;;;;6.10;1.23;;;17.10;81.00;;;;;;4130278;28;20022;-84
2022/07/30 06:27:08;;;;;;;6.72;1.17;;;17.10;80.80;;;;;;4114533;28;20442;-85
2022/07/30 06:29:08;;;;;;;9.73;1.83;;;17.20;80.70;;;;;;4130175;28;20027;-87
2022/07/30 06:31:09;;;;;;;6.63;1.13;;;17.20;80.70;;;;;;4145137;28;20029;-86
2022/07/30 06:33:10;;;;;;;7.10;1.25;;;17.20;80.30;;;;;;4133010;28;20041;-86
2022/07/30 06:35:11;;;;;;;7.82;1.05;;;17.30;80.20;;;;;;4118216;28;20032;-84
2022/07/30 06:37:11;;;;;;;6.13;1.40;;;17.30;80.40;;;;;;4129284;28;20018;-86
2022/07/30 06:39:12;;;;;;;5.38;1.25;;;17.30;80.30;;;;;;4128988;28;20064;-84
2022/07/30 06:41:14;;;;;;;7.65;1.30;;;17.40;80.10;;;;;;4117639;28;20030;-86
2022/07/30 06:43:15;;;;;;;3.92;1.20;;;17.40;79.80;;;;;;4132755;28;20011;-86
2022/07/30 06:45:16;;;;;;;8.27;1.77;;;17.40;79.50;;;;;;4119537;28;20053;-86
2022/07/30 06:47:25;;;;;;;6.20;1.23;;;17.50;79.50;;;;;;4129737;28;20034;-84
2022/07/30 06:49:25;;;;;;;6.25;1.35;;;17.50;79.10;;;;;;4130856;28;20480;-86
2022/07/30 06:51:26;;;;;;;6.22;1.33;;;17.50;78.50;;;;;;4126413;28;20041;-85
2022/07/30 06:53:27;;;;;;;4.93;1.30;;;17.50;78.30;;;;;;4131153;28;20109;-85
2022/07/30 06:55:27;;;;;;;10.10;1.20;;;17.60;78.20;;;;;;4097733;28;20023;-86
2022/07/30 06:57:28;;;;;;;6.82;1.27;;;17.60;78.00;;;;;;4118805;28;20895;-85
2022/07/30 06:59:28;;;;;;;6.68;1.55;;;17.70;77.90;;;;;;4116455;28;20045;-86
2022/07/30 07:01:29;;;;;;;4.20;0.90;;;17.70;77.80;;;;;;4112711;28;20026;-87
2022/07/30 07:03:30;;;;;;;7.45;1.70;;;17.70;77.60;;;;;;4109141;28;20027;-85
2022/07/30 07:05:30;;;;;;;7.50;1.13;;;17.70;77.60;;;;;;4128531;28;20061;-86
2022/07/30 07:07:33;;;;;;;6.72;1.38;;;17.70;77.30;;;;;;4130153;28;20692;-83
2022/07/30 07:09:34;;;;;;;3.85;1.10;;;17.80;77.20;;;;;;4120340;28;20609;-85
2022/07/30 07:11:35;;;;;;;5.47;1.30;;;17.80;77.00;;;;;;4131692;28;20031;-86
2022/07/30 07:13:35;;;;;;;10.18;1.50;;;17.80;76.80;;;;;;4132204;28;20034;-87
2022/07/30 07:15:36;;;;;;;3.60;1.00;;;17.90;76.80;;;;;;4134611;28;20057;-84
2022/07/30 07:17:37;;;;;;;7.70;1.10;;;17.90;76.90;;;;;;4111387;28;20131;-84
2022/07/30 07:19:37;;;;;;;5.47;1.20;;;17.90;76.90;;;;;;4115710;28;20406;-84
2022/07/30 07:21:38;;;;;;;6.38;1.20;;;18.00;77.30;;;;;;4127715;28;20122;-85
2022/07/30 07:23:39;;;;;;;3.53;1.05;;;18.10;77.50;;;;;;4126703;28;20580;-86
2022/07/30 07:25:40;;;;;;;4.57;1.10;;;18.20;77.30;;;;;;4133294;28;20522;-86
2022/07/30 07:27:41;;;;;;;7.07;1.23;;;18.20;76.70;;;;;;4111772;28;20147;-85
2022/07/30 07:29:43;;;;;;;5.35;1.58;;;18.30;76.10;;;;;;4112694;28;20026;-85
2022/07/30 07:31:43;;;;;;;3.60;1.00;;;18.40;76.00;;;;;;4129412;28;20509;-86
2022/07/30 07:33:45;;;;;;;2.80;1.05;;;18.40;75.10;;;;;;4126621;28;20022;-86
2022/07/30 07:35:46;;;;;;;6.65;1.45;;;18.40;74.70;;;;;;4115777;28;20035;-86
2022/07/30 07:37:47;;;;;;;5.40;1.05;;;18.50;74.60;;;;;;4116130;28;20041;-86
2022/07/30 07:39:53;;;;;;;4.57;0.98;;;18.60;74.80;;;;;;4114189;28;20031;-85
2022/07/30 07:41:54;;;;;;;4.13;1.10;;;18.70;74.70;;;;;;4129082;28;20057;-86
2022/07/30 07:44:04;;;;;;;5.70;1.33;;;18.70;73.40;;;;;;4127770;28;20054;-86
2022/07/30 07:46:06;;;;;;;7.82;1.58;;;18.80;73.20;;;;;;4097908;28;20035;-85
2022/07/30 07:48:13;;;;;;;3.78;0.85;;;18.80;72.60;;;;;;4115835;28;20037;-85
2022/07/30 07:50:15;;;;;;;10.05;1.05;;;18.90;72.60;;;;;;4127939;28;20034;-86
2022/07/30 07:52:15;;;;;;;3.53;1.17;;;18.90;72.30;;;;;;4114339;28;20064;-86
2022/07/30 07:54:36;;;;;;;12.23;1.52;;;18.90;72.00;;;;;;4126297;28;20034;-85
2022/07/30 07:56:38;;;;;;;6.03;1.15;;;19.00;71.80;;;;;;4128629;28;20029;-85
2022/07/30 07:58:58;;;;;;;4.05;0.93;;;19.00;71.50;;;;;;4118894;28;20035;-85
2022/07/30 08:01:00;;;;;;;5.40;1.20;;;19.10;71.50;;;;;;4128503;28;20030;-86
2022/07/30 08:03:21;;;;;;;4.80;1.20;;;19.10;71.30;;;;;;4126686;28;20062;-85
2022/07/30 08:05:42;;;;;;;7.38;1.52;;;19.10;70.90;;;;;;4111410;28;20042;-85
2022/07/30 08:07:43;;;;;;;4.75;1.25;;;19.10;70.40;;;;;;4111484;28;20427;-85
2022/07/30 08:10:05;;;;;;;3.83;1.35;;;19.10;70.40;;;;;;4122023;28;20042;-86
2022/07/30 08:12:07;;;;;;;4.07;1.10;;;19.00;70.40;;;;;;4129994;28;20049;-85
2022/07/30 08:14:08;;;;;;;4.88;1.30;;;19.00;70.50;;;;;;4118386;28;20050;-86
2022/07/30 08:16:28;;;;;;;5.57;1.15;;;19.00;70.70;;;;;;4119157;28;20087;-84
2022/07/30 08:18:49;;;;;;;5.90;1.33;;;19.00;70.90;;;;;;4127802;28;20058;-85
2022/07/30 08:21:10;;;;;;;4.55;1.20;;;19.00;71.00;;;;;;4126664;28;20121;-87
2022/07/30 08:23:23;;;;;;;10.88;1.60;;;18.90;71.00;;;;;;4099528;28;20035;-84
2022/07/30 08:25:43;;;;;;;3.75;1.13;;;18.90;71.10;;;;;;4128586;28;20053;-86
2022/07/30 08:27:44;;;;;;;5.20;1.42;;;18.90;71.60;;;;;;4103387;28;20526;-86
2022/07/30 08:29:47;;;;;;;6.10;1.33;;;18.90;71.70;;;;;;4092601;28;20122;-85
2022/07/30 08:32:08;;;;;;;6.28;1.10;;;18.90;71.70;;;;;;4113183;28;20031;-85
2022/07/30 08:34:29;;;;;;;5.35;1.33;;;19.00;72.00;;;;;;4128214;28;20038;-87
2022/07/30 08:36:49;;;;;;;6.65;1.40;;;19.00;71.90;;;;;;4118457;28;20038;-85
2022/07/30 08:38:51;;;;;;;6.00;1.60;;;19.00;71.70;;;;;;4101401;28;20031;-84
2022/07/30 08:41:12;;;;;;;4.95;1.40;;;19.00;71.40;;;;;;4117413;28;20045;-86
2022/07/30 08:43:34;;;;;;;3.38;0.95;;;19.00;71.30;;;;;;4128444;28;20124;-85
2022/07/30 08:45:57;;;;;;;5.82;1.50;;;19.00;71.20;;;;;;4131723;28;20041;-86
2022/07/30 08:48:21;;;;;;;7.05;1.55;;;19.00;71.20;;;;;;4118592;28;20039;-86
2022/07/30 08:50:44;;;;;;;5.85;1.92;;;19.00;71.30;;;;;;4128841;28;20030;-86
2022/07/30 08:53:05;;;;;;;9.27;1.42;;;19.10;71.40;;;;;;4120402;28;20042;-86
2022/07/30 08:55:26;;;;;;;9.98;1.23;;;19.10;71.30;;;;;;4134427;28;20043;-86
2022/07/30 08:57:46;;;;;;;6.28;1.40;;;19.10;71.00;;;;;;4115613;28;20107;-86
2022/07/30 09:00:08;;;;;;;13.18;1.30;;;19.10;70.90;;;;;;4114307;28;20041;-86
2022/07/30 09:02:30;;;;;;;11.63;1.55;;;19.10;71.00;;;;;;4117034;28;20027;-86
2022/07/30 09:04:51;;;;;;;7.70;1.90;;;19.10;71.00;;;;;;4138128;28;20022;-86
2022/07/30 09:07:12;;;;;;;2.95;1.20;;;19.10;71.00;;;;;;4115349;28;20033;-86
2022/07/30 09:09:33;;;;;;;9.25;1.38;;;19.10;70.90;;;;;;4127875;28;20078;-87
2022/07/30 09:11:54;;;;;;;9.45;1.55;;;19.20;70.90;;;;;;4124718;28;20027;-87
2022/07/30 09:14:14;;;;;;;5.03;1.45;;;19.20;71.10;;;;;;4135276;28;20123;-89
2022/07/30 09:16:35;;;;;;;4.15;1.48;;;19.20;71.10;;;;;;4123882;28;20208;-87
2022/07/30 09:18:43;;;;;;;7.90;1.38;;;19.20;71.10;;;;;;4093287;28;20046;-87
2022/07/30 09:20:43;;;;;;;3.80;1.27;;;19.20;71.30;;;;;;4123967;28;20080;-87
2022/07/30 09:22:52;;;;;;;6.80;1.50;;;19.20;71.10;;;;;;4094624;28;20498;-88
2022/07/30 09:24:52;;;;;;;4.88;1.50;;;19.20;70.90;;;;;;4110130;28;20035;-86
2022/07/30 09:26:58;;;;;;;3.95;1.30;;;19.20;71.00;;;;;;4096666;28;20403;-88
2022/07/30 09:29:19;;;;;;;7.35;1.40;;;19.30;71.00;;;;;;4119390;28;20058;-88
2022/07/30 09:31:21;;;;;;;5.72;1.70;;;19.30;70.80;;;;;;4118409;28;20589;-87
2022/07/30 09:33:32;;;;;;;3.53;1.47;;;19.30;70.80;;;;;;4100691;28;20027;-88
2022/07/30 09:35:32;;;;;;;7.15;1.38;;;19.30;70.70;;;;;;4102178;28;20031;-87
2022/07/30 09:37:33;;;;;;;11.95;1.45;;;19.30;70.60;;;;;;4110520;28;20027;-87
2022/07/30 09:39:39;;;;;;;6.63;1.73;;;19.40;70.50;;;;;;4126231;28;20030;-86
2022/07/30 09:41:40;;;;;;;6.35;1.58;;;19.30;70.30;;;;;;4128652;28;20041;-87
2022/07/30 09:43:47;;;;;;;8.48;1.48;;;19.40;70.40;;;;;;4108398;28;20879;-87
2022/07/30 09:45:57;;;;;;;5.30;1.38;;;19.40;70.40;;;;;;4125884;28;20027;-86
2022/07/30 09:47:58;;;;;;;8.32;1.48;;;19.40;70.90;;;;;;4115566;28;20031;-85
2022/07/30 09:50:11;;;;;;;15.93;1.83;;;19.40;70.00;;;;;;4113959;28;20027;-86
2022/07/30 09:52:27;;;;;;;3.92;1.40;;;19.40;69.90;;;;;;4129163;28;20577;-86
2022/07/30 09:54:46;;;;;;;14.98;1.50;;;19.40;69.90;;;;;;4139236;28;20033;-86
2022/07/30 09:57:01;;;;;;;10.25;1.73;;;19.40;70.00;;;;;;4123937;28;20091;-85
2022/07/30 09:59:02;;;;;;;12.23;2.70;;;19.50;70.20;;;;;;4131051;28;20032;-85
2022/07/30 10:01:03;;;;;;;5.15;1.60;;;19.50;70.10;;;;;;4122646;28;20731;-87
2022/07/30 10:03:19;;;;;;;4.03;1.40;;;19.50;70.10;;;;;;4112691;28;20057;-85
2022/07/30 10:05:20;;;;;;;9.68;2.00;;;19.50;69.60;;;;;;4110590;28;20039;-87
2022/07/30 10:07:21;;;;;;;8.75;1.75;;;19.50;69.60;;;;;;4141174;28;20033;-88
2022/07/30 10:09:35;;;;;;;6.22;1.90;;;19.40;69.50;;;;;;4125101;28;20100;-86
2022/07/30 10:11:36;;;;;;;;;;;19.50;69.60;;;;;;4129103;28;20075;-85
2022/07/30 10:13:37;;;;;;;3.65;1.17;;;19.50;70.20;;;;;;4127256;28;21782;-84
2022/07/30 10:15:39;;;;;;;11.38;1.63;;;19.50;69.40;;;;;;4110121;28;20028;-86
2022/07/30 10:17:40;;;;;;;8.52;1.73;;;19.50;69.30;;;;;;4113168;28;20105;-86
2022/07/30 10:19:41;;;;;;;7.38;1.70;;;19.50;69.10;;;;;;4114901;28;20073;-85
2022/07/30 10:21:42;;;;;;;6.22;1.77;;;19.60;69.20;;;;;;4143282;28;20726;-86
2022/07/30 10:23:43;;;;;;;7.15;1.88;;;19.60;69.20;;;;;;4130024;28;20161;-86
2022/07/30 10:25:45;;;;;;;11.27;2.08;;;19.60;68.50;;;;;;4133955;28;20461;-85
2022/07/30 10:27:47;;;;;;;11.23;1.85;;;19.60;68.30;;;;;;4113607;28;20541;-87
2022/07/30 10:29:48;;;;;;;7.72;1.85;;;19.60;68.20;;;;;;4113009;28;20023;-87
2022/07/30 10:31:50;;;;;;;9.35;1.92;;;19.60;68.30;;;;;;4129601;28;20081;-85
2022/07/30 10:33:51;;;;;;;6.47;2.00;;;19.60;68.00;;;;;;4134714;28;20225;-86
2022/07/30 10:35:56;;;;;;;4.68;1.60;;;19.60;67.80;;;;;;4111718;28;20102;-85
2022/07/30 10:37:58;;;;;;;7.40;1.83;;;19.60;67.80;;;;;;4114701;28;20034;-86
2022/07/30 10:40:25;;;;;;;5.20;1.70;;;19.70;67.90;;;;;;4115052;28;20023;-85
2022/07/30 10:42:59;;;;;;;5.10;2.10;;;19.60;67.70;;;;;;4114879;28;20035;-86
2022/07/30 10:45:27;;;;;;;22.50;2.70;;;19.60;67.80;;;;;;4113674;28;20163;-86
2022/07/30 10:47:29;;;;;;;10.40;2.00;;;19.60;68.10;;;;;;4131117;28;20030;-85
2022/07/30 10:49:33;;;;;;;6.80;1.60;;;19.60;68.30;;;;;;4116337;28;20545;-87
2022/07/30 10:51:46;;;;;;;12.80;2.95;;;19.60;68.50;;;;;;4110550;28;20031;-85
2022/07/30 10:53:47;;;;;;;9.98;2.22;;;19.60;68.30;;;;;;4110841;28;20030;-87
2022/07/30 10:56:17;;;;;;;7.38;1.73;;;19.60;68.60;;;;;;4131024;28;20646;-87
2022/07/30 10:58:19;;;;;;;20.00;2.30;;;19.60;68.20;;;;;;4110873;28;20034;-87
2022/07/30 11:00:20;;;;;;;22.33;3.05;;;19.70;68.60;;;;;;4142118;28;20065;-88
2022/07/30 11:02:26;;;;;;;16.85;2.35;;;19.60;68.20;;;;;;4133192;28;20037;-86
2022/07/30 11:04:28;;;;;;;12.35;2.00;;;19.70;68.30;;;;;;4131215;28;20041;-87
2022/07/30 11:06:50;;;;;;;4.53;1.80;;;19.70;68.20;;;;;;4127746;28;20034;-86
2022/07/30 11:09:41;;;;;;;4.55;1.95;;;19.70;68.20;;;;;;4116390;28;20031;-87
2022/07/30 11:12:03;;;;;;;9.93;2.10;;;19.80;68.10;;;;;;4143876;28;20030;-87
2022/07/30 11:14:46;;;;;;;7.10;1.95;;;19.80;68.40;;;;;;4130650;28;20036;-86